Flight Track Log - Related Links

Times and Time Zones

All times are in EDT time to prevent confusion due to time zone crossing. See the UAL5228 flight status page for this flight to view local times or setup timezone preferences in your user account.

Time Position Orientation Groundspeed Altitude Reporting Facility
EDT Latitude Longitude Course Direction KTS MPH feet Rate Location/Type
Fri 02:19:51 PM 46.9219 -96.8986 239° Southwest 241 277 3,500  Level Minneapolis Center
Fri 02:20:53 PM 46.8575 -96.9639 215° Southwest 271 312 6,600 3,000 Climbing Minneapolis Center
Fri 02:21:55 PM 46.7936 -97.0283 215° Southwest 266 306 9,700 2,710 Climbing Minneapolis Center
Fri 02:22:00 PM 46.5705 -97.1645 218° Southwest  Level FlightAware Approximate
Fri 02:22:57 PM 46.7267 -97.0947 214° Southwest 278 320 12,200  Level Minneapolis Center
Fri 02:23:00 PM 46.4920 -97.2529 218° Southwest  Level FlightAware Approximate
Fri 02:23:59 PM 46.6606 -97.1608 214° Southwest 296 341 14,100  Level Minneapolis Center
Fri 02:24:00 PM 46.4120 -97.3382 215° Southwest  Level FlightAware Approximate
Fri 02:25:01 PM 46.5858 -97.2356 215° Southwest 308 354 16,300  Level Minneapolis Center
Fri 02:26:03 PM 46.5097 -97.3117 215° Southwest 316 364 18,200 1,597 Climbing Minneapolis Center
Fri 02:27:05 PM 46.4411 -97.3783 214° Southwest 327 376 19,600 1,452 Climbing Minneapolis Center
Fri 02:28:07 PM 46.3639 -97.4564 215° Southwest 333 383 21,200 1,694 Climbing Minneapolis Center
Fri 02:29:09 PM 46.2694 -97.5486 214° Southwest 337 388 23,100 1,597 Climbing Minneapolis Center
Fri 02:30:11 PM 46.1908 -97.6242 214° Southwest 339 390 24,500 1,210 Climbing Minneapolis Center
Fri 02:31:13 PM 46.1108 -97.7031 214° Southwest 344 396 25,600 1,065 Climbing Minneapolis Center
Fri 02:32:15 PM 46.0300 -97.7814 214° Southwest 347 399 26,700 1,016 Climbing Minneapolis Center
Fri 02:33:17 PM 45.9472 -97.8597 213° Southwest 351 404 27,700 919 Climbing Minneapolis Center
Fri 02:34:19 PM 45.8567 -97.9492 215° Southwest 354 407 28,600 823 Climbing Minneapolis Center
Fri 02:35:21 PM 45.7733 -98.0269 213° Southwest 358 412 29,400 823 Climbing Minneapolis Center
Fri 02:36:23 PM 45.6806 -98.1189 215° Southwest 357 411 30,300 774 Climbing Minneapolis Center
Fri 02:37:25 PM 45.5989 -98.1961 213° Southwest 356 410 31,000 629 Climbing Minneapolis Center
Fri 02:38:27 PM 45.5158 -98.2736 213° Southwest 356 410 31,600 484 Climbing Minneapolis Center
Fri 02:39:29 PM 45.4342 -98.3514 214° Southwest 355 409 32,000 194 Climbing Minneapolis Center
Fri 02:40:31 PM 45.3519 -98.4331 215° Southwest 356 410 32,000  Level Minneapolis Center
Fri 02:41:33 PM 45.2675 -98.5206 216° Southwest 367 422 32,000  Level Minneapolis Center
Fri 02:42:35 PM 45.1814 -98.6094 216° Southwest 376 433 32,000  Level Minneapolis Center
Fri 02:43:37 PM 45.0747 -98.7167 215° Southwest 384 442 32,000  Level Minneapolis Center
Fri 02:44:39 PM 44.9858 -98.8053 215° Southwest 385 443 32,000  Level Minneapolis Center
Fri 02:45:40 PM 44.8983 -98.8947 216° Southwest 385 443 32,000  Level Minneapolis Center
Fri 02:46:42 PM 44.8097 -98.9825 215° Southwest 386 444 32,000  Level Minneapolis Center
Fri 02:47:44 PM 44.7222 -99.0706 216° Southwest 386 444 32,000  Level Minneapolis Center
Fri 02:48:46 PM 44.6336 -99.1578 215° Southwest 386 444 32,000  Level Minneapolis Center
Fri 02:49:48 PM 44.5456 -99.2444 215° Southwest 386 444 32,000  Level Minneapolis Center
Fri 02:50:50 PM 44.4578 -99.3325 216° Southwest 386 444 32,000  Level Minneapolis Center
Fri 02:51:52 PM 44.3539 -99.4342 215° Southwest 384 442 32,000  Level Minneapolis Center
Fri 02:52:53 PM 44.2647 -99.5206 215° Southwest 385 443 32,000  Level Minneapolis Center
Fri 02:53:55 PM 44.1783 -99.6064 215° Southwest 384 442 32,000  Level Minneapolis Center
Fri 02:54:57 PM 44.0919 -99.6892 215° Southwest 382 440 32,000  Level Minneapolis Center
Fri 02:55:59 PM 44.0047 -99.7731 215° Southwest 382 440 32,000  Level Minneapolis Center
Fri 02:57:01 PM 43.9192 -99.8567 215° Southwest 380 437 32,000  Level Minneapolis Center
Fri 02:58:03 PM 43.8333 -99.9397 215° Southwest 380 437 32,000  Level Minneapolis Center
Fri 02:59:04 PM 43.7308 -100.0372 215° Southwest 377 434 32,000  Level Minneapolis Center
Fri 03:00:06 PM 43.6461 -100.1197 215° Southwest 377 434 32,000  Level Minneapolis Center
Fri 03:01:08 PM 43.5606 -100.2000 214° Southwest 376 433 32,000  Level Minneapolis Center
Fri 03:02:10 PM 43.4753 -100.2789 214° Southwest 373 429 32,000  Level Minneapolis Center
Fri 03:03:11 PM 43.3906 -100.3608 215° Southwest 373 429 32,000  Level Minneapolis Center
Fri 03:04:13 PM 43.3053 -100.4419 215° Southwest 373 429 32,000  Level Minneapolis Center
Fri 03:05:15 PM 43.2214 -100.5200 214° Southwest 371 427 32,000  Level Minneapolis Center
Fri 03:06:16 PM 43.1361 -100.5997 214° Southwest 369 425 32,000  Level Minneapolis Center
Fri 03:07:14 PM 43.0511 -100.6764 213° Southwest 369 425 32,000  Level Denver Center
Fri 03:08:16 PM 42.9661 -100.7564 215° Southwest 369 425 32,000  Level Denver Center
Fri 03:09:17 PM 42.8656 -100.8503 214° Southwest 368 423 32,000  Level Denver Center
Fri 03:10:19 PM 42.7800 -100.9267 213° Southwest 368 423 32,000  Level Denver Center
Fri 03:11:21 PM 42.6975 -101.0031 214° Southwest 368 423 32,000  Level Denver Center
Fri 03:12:23 PM 42.6086 -101.0964 218° Southwest 364 419 32,000  Level Denver Center
Fri 03:13:25 PM 42.5403 -101.1864 224° Southwest 357 411 32,000  Level Denver Center
Fri 03:14:27 PM 42.4614 -101.2906 224° Southwest 357 411 32,000  Level Denver Center
Fri 03:15:29 PM 42.3942 -101.3822 225° Southwest 357 411 32,000  Level Denver Center
Fri 03:16:31 PM 42.3156 -101.4875 225° Southwest 357 411 32,000  Level Denver Center
Fri 03:17:33 PM 42.2483 -101.5764 224° Southwest 357 411 32,000  Level Denver Center
Fri 03:18:35 PM 42.1808 -101.6664 225° Southwest 355 409 32,000  Level Denver Center
Fri 03:19:37 PM 42.1014 -101.7717 225° Southwest 357 411 32,000  Level Denver Center
Fri 03:20:39 PM 42.0344 -101.8597 224° Southwest 356 410 32,000  Level Denver Center
Fri 03:21:41 PM 41.9550 -101.9639 224° Southwest 357 411 32,000  Level Denver Center
Fri 03:22:43 PM 41.8881 -102.0517 224° Southwest 355 409 32,000  Level Denver Center
Fri 03:23:45 PM 41.8100 -102.1531 224° Southwest 352 405 32,000  Level Denver Center
Fri 03:24:47 PM 41.7425 -102.2414 224° Southwest 352 405 32,000  Level Denver Center
Fri 03:25:49 PM 41.6642 -102.3419 224° Southwest 352 405 32,000  Level Denver Center
Fri 03:26:50 PM 41.5975 -102.4300 225° Southwest 352 405 32,000  Level Denver Center
Fri 03:27:52 PM 41.5189 -102.5303 224° Southwest 352 405 32,000  Level Denver Center
Fri 03:28:54 PM 41.4550 -102.6114 224° Southwest 352 405 32,000  Level Denver Center
Fri 03:29:56 PM 41.3769 -102.7122 224° Southwest 352 405 32,000  Level Denver Center
Fri 03:30:58 PM 41.3097 -102.7986 224° Southwest 351 404 32,000  Level Denver Center
Fri 03:32:00 PM 41.2306 -102.8986 224° Southwest 351 404 32,000  Level Denver Center
Fri 03:33:02 PM 41.1617 -102.9847 223° Southwest 351 404 32,000  Level Denver Center
Fri 03:34:04 PM 41.0836 -103.0853 224° Southwest 351 404 32,000  Level Denver Center
Fri 03:35:06 PM 41.0153 -103.1711 223° Southwest 351 404 32,000  Level Denver Center
Fri 03:36:07 PM 40.9497 -103.2531 223° Southwest 351 404 32,000 -390 Level Denver Center
Fri 03:37:09 PM 40.8639 -103.3603 223° Southwest 351 404 31,200 -1,306 Descending Denver Center
Fri 03:38:11 PM 40.7906 -103.4519 223° Southwest 364 419 29,300 -1,742 Descending Denver Center
Fri 03:39:13 PM 40.7169 -103.5436 223° Southwest 364 419 27,600 -1,694 Descending Denver Center
Fri 03:40:15 PM 40.6442 -103.6339 223° Southwest 363 418 25,800 -1,790 Descending Denver Center
Fri 03:41:17 PM 40.5714 -103.7244 223° Southwest 361 415 23,900 -1,742 Descending Denver Center
Fri 03:42:19 PM 40.5003 -103.8114 223° Southwest 352 405 22,200 -1,935 Descending Denver Center
Fri 03:43:21 PM 40.4206 -103.9183 226° Southwest 346 398 19,900 -1,951 Descending Denver Center
Fri 03:44:22 PM 40.3583 -104.0033 226° Southwest 329 379 18,200 -1,659 Descending Denver Center
Fri 03:45:24 PM 40.3442 -104.1036 260° West 293 337 16,500 -1,694 Descending Denver Center
Fri 03:46:26 PM 40.3103 -104.2061 247° West 288 331 14,700 -1,694 Descending Denver Center
Fri 03:47:28 PM 40.2786 -104.3039 247° West 289 333 13,000 -1,306 Descending Denver Center
Fri 03:48:30 PM 40.2469 -104.4086 248° West 289 333 12,000 -1,171 Descending Denver Center
Fri 03:49:31 PM 40.2197 -104.5039 250° West 285 328 10,600 -1,415 Descending Denver Center
Fri 03:50:33 PM 40.1578 -104.5619 216° Southwest 279 321 9,100 -1,258 Descending Denver Center
Fri 03:51:35 PM 40.0847 -104.6167 210° Southwest 283 326 8,000 -515 Descending Denver Center
Fri 03:53:16 PM 39.9833 -104.6667 201° Southwest 215 247 7,700 -447 Descending Denver TRACON
Fri 03:54:16 PM 39.9333 -104.6667 180° South 169 194 6,800 -893 Descending Denver TRACON
Fri 03:55:17 PM 39.8833 -104.6667 180° South 149 171 5,900 -885 Descending Denver TRACON

Login

Don't have an account? Register now (free) for customized features, flight alerts, and more!